createdAt,value
2024-04-06T00:00:55.479Z,1081.00
2024-04-06T00:02:03.434Z,1075.00
2024-04-06T00:02:55.485Z,1075.00
2024-04-06T00:03:55.492Z,1075.00
2024-04-06T00:05:16.491Z,1076.00
2024-04-06T00:05:55.487Z,1076.00
2024-04-06T00:06:55.528Z,1078.00
2024-04-06T00:08:23.948Z,1086.00
2024-04-06T00:08:55.495Z,1076.00
2024-04-06T00:09:55.512Z,1081.00
2024-04-06T00:10:55.487Z,1092.00
2024-04-06T00:11:55.494Z,1101.00
2024-04-06T00:12:55.496Z,1107.00
2024-04-06T00:13:55.496Z,1096.00
2024-04-06T00:14:55.495Z,1092.00
2024-04-06T00:15:55.498Z,1092.00
2024-04-06T00:16:55.515Z,1085.00
2024-04-06T00:17:55.502Z,1083.00
2024-04-06T00:18:55.498Z,1077.00
2024-04-06T00:19:55.509Z,1087.00
2024-04-06T00:20:55.507Z,1077.00
2024-04-06T00:21:55.497Z,1074.00
2024-04-06T00:22:55.502Z,1069.00
2024-04-06T00:23:55.507Z,1074.00
2024-04-06T00:24:55.496Z,1072.00
2024-04-06T00:25:55.502Z,1065.00
2024-04-06T00:27:10.477Z,1067.00
2024-04-06T00:27:55.511Z,1067.00
2024-04-06T00:28:55.502Z,1068.00
2024-04-06T00:30:16.515Z,1071.00
2024-04-06T00:30:55.510Z,1068.00
2024-04-06T00:31:55.503Z,1071.00
2024-04-06T00:33:16.518Z,1074.00
2024-04-06T00:33:55.506Z,1068.00
2024-04-06T00:34:55.513Z,1070.00
2024-04-06T00:35:55.509Z,1073.00
2024-04-06T00:36:55.519Z,1074.00
2024-04-06T00:37:55.516Z,1080.00
2024-04-06T00:38:55.513Z,1061.00
2024-04-06T00:39:55.525Z,1058.00
2024-04-06T00:40:55.509Z,1058.00
2024-04-06T00:41:55.514Z,1054.00
2024-04-06T00:42:55.515Z,1055.00
2024-04-06T00:43:55.512Z,1052.00
2024-04-06T00:44:55.526Z,1046.00
2024-04-06T00:45:55.509Z,1039.00
2024-04-06T00:46:55.509Z,1029.00
2024-04-06T00:47:55.513Z,1030.00
2024-04-06T00:48:55.524Z,1028.00
2024-04-06T00:49:55.521Z,1024.00
2024-04-06T00:50:55.528Z,1014.00
2024-04-06T00:51:55.511Z,1025.00
2024-04-06T00:52:55.510Z,1021.00
2024-04-06T00:53:55.517Z,1011.00
2024-04-06T00:54:56.466Z,1003.00
2024-04-06T00:55:55.513Z,996.00
2024-04-06T00:56:55.528Z,1003.00
2024-04-06T00:58:23.469Z,994.00
2024-04-06T00:58:55.531Z,995.00
2024-04-06T00:59:55.525Z,998.00
2024-04-06T01:01:10.455Z,1001.00
2024-04-06T01:02:04.104Z,995.00
2024-04-06T01:02:56.536Z,996.00
2024-04-06T01:03:55.534Z,1001.00
2024-04-06T01:04:55.536Z,1005.00
2024-04-06T01:05:55.534Z,1014.00
2024-04-06T01:06:55.540Z,1020.00
2024-04-06T01:07:55.543Z,1015.00
2024-04-06T01:08:55.541Z,1023.00
2024-04-06T01:09:55.536Z,1022.00
2024-04-06T01:10:55.540Z,1029.00
2024-04-06T01:11:55.538Z,1020.00
2024-04-06T01:12:55.541Z,1026.00
2024-04-06T01:13:55.542Z,1024.00
2024-04-06T01:14:55.540Z,1020.00
2024-04-06T01:15:55.539Z,1022.00
2024-04-06T01:17:02.959Z,1025.00
2024-04-06T01:17:55.541Z,1025.00
2024-04-06T01:18:55.545Z,1026.00
2024-04-06T01:19:55.548Z,1026.00
2024-04-06T01:20:55.540Z,1035.00
2024-04-06T01:21:55.548Z,1039.00
2024-04-06T01:23:02.463Z,1040.00
2024-04-06T01:23:55.544Z,1040.00
2024-04-06T01:24:55.549Z,1042.00
2024-04-06T01:26:10.484Z,1044.00
2024-04-06T01:26:55.555Z,1041.00
2024-04-06T01:27:55.559Z,1043.00
2024-04-06T01:28:55.558Z,1048.00
2024-04-06T01:29:55.563Z,1050.00
2024-04-06T01:30:55.553Z,1057.00
2024-04-06T01:31:55.567Z,1066.00
2024-04-06T01:32:55.578Z,1070.00
2024-04-06T01:33:55.546Z,1059.00
2024-04-06T01:34:55.561Z,1067.00
2024-04-06T01:35:55.550Z,1071.00
2024-04-06T01:36:55.548Z,1057.00
2024-04-06T01:37:55.545Z,1050.00
2024-04-06T01:38:55.544Z,1047.00
2024-04-06T01:39:55.553Z,1049.00
2024-04-06T01:40:55.565Z,1042.00
2024-04-06T01:41:55.573Z,1046.00
2024-04-06T01:42:55.633Z,1039.00
2024-04-06T01:43:55.578Z,1030.00
2024-04-06T01:44:58.979Z,1028.00
2024-04-06T01:45:55.598Z,1028.00
2024-04-06T01:46:55.572Z,1028.00
2024-04-06T01:48:11.990Z,1023.00
2024-04-06T01:48:55.668Z,1028.00
2024-04-06T01:49:55.646Z,1029.00
2024-04-06T01:51:26.997Z,1028.00
2024-04-06T01:51:55.602Z,1028.00
2024-04-06T01:52:55.689Z,1031.00
2024-04-06T01:54:18.489Z,1034.00
2024-04-06T01:54:55.692Z,1029.00
2024-04-06T01:55:55.677Z,1033.00
2024-04-06T01:56:55.655Z,1040.00
2024-04-06T01:57:55.650Z,1054.00
2024-04-06T01:58:55.683Z,1069.00
2024-04-06T01:59:55.583Z,1082.00
2024-04-06T02:00:55.694Z,1076.00
2024-04-06T02:01:55.612Z,1088.00
2024-04-06T02:02:55.597Z,1069.00
2024-04-06T02:03:55.593Z,1073.00
2024-04-06T02:04:55.588Z,1068.00
2024-04-06T02:05:55.588Z,1065.00
2024-04-06T02:06:55.591Z,1065.00
2024-04-06T02:07:55.585Z,1068.00
2024-04-06T02:08:55.590Z,1068.00
2024-04-06T02:09:55.594Z,1072.00
2024-04-06T02:10:55.599Z,1071.00
2024-04-06T02:11:55.597Z,1079.00
2024-04-06T02:12:55.601Z,1078.00
2024-04-06T02:13:55.606Z,1086.00
2024-04-06T02:14:55.633Z,1086.00
2024-04-06T02:16:10.486Z,1090.00
2024-04-06T02:16:55.651Z,1091.00
2024-04-06T02:17:55.664Z,1092.00
2024-04-06T02:19:10.491Z,1095.00
2024-04-06T02:19:55.672Z,1091.00
2024-04-06T02:20:55.662Z,1095.00
2024-04-06T02:21:55.664Z,1102.00
2024-04-06T02:22:55.667Z,1105.00
2024-04-06T02:23:55.681Z,1112.00
2024-04-06T02:24:55.670Z,1117.00
2024-04-06T02:25:55.672Z,1119.00
2024-04-06T02:26:55.677Z,1122.00
2024-04-06T02:27:55.681Z,1119.00
2024-04-06T02:28:55.675Z,1123.00
2024-04-06T02:29:55.679Z,1120.00
2024-04-06T02:30:55.673Z,1132.00
2024-04-06T02:31:55.695Z,1120.00
2024-04-06T02:32:55.681Z,1116.00
2024-04-06T02:33:55.675Z,1123.00
2024-04-06T02:35:01.024Z,1122.00
2024-04-06T02:35:55.682Z,1122.00
2024-04-06T02:36:55.689Z,1122.00
2024-04-06T02:37:55.688Z,1124.00
2024-04-06T02:38:55.697Z,1126.00
2024-04-06T02:39:55.708Z,1124.00
2024-04-06T02:40:59.003Z,1125.00
2024-04-06T02:41:55.731Z,1127.00
2024-04-06T02:42:55.734Z,1127.00
2024-04-06T02:44:22.008Z,1130.00
2024-04-06T02:44:55.746Z,1131.00
2024-04-06T02:45:55.761Z,1133.00
2024-04-06T02:47:27.011Z,1136.00
2024-04-06T02:47:55.747Z,1131.00
2024-04-06T02:48:55.752Z,1135.00
2024-04-06T02:49:55.751Z,1141.00
2024-04-06T02:50:55.764Z,1153.00
2024-04-06T02:51:55.763Z,1155.00
2024-04-06T02:52:55.807Z,1153.00
2024-04-06T02:53:55.762Z,1149.00
2024-04-06T02:54:55.769Z,1133.00
2024-04-06T02:55:55.758Z,1131.00
2024-04-06T02:56:55.752Z,1128.00
2024-04-06T02:57:55.774Z,1128.00
2024-04-06T02:58:55.757Z,1118.00
2024-04-06T02:59:55.763Z,1116.00
2024-04-06T03:00:55.753Z,1114.00
2024-04-06T03:01:55.755Z,1116.00
2024-04-06T03:03:10.513Z,1111.00
2024-04-06T03:03:55.753Z,1111.00
2024-04-06T03:04:55.765Z,1113.00
2024-04-06T03:06:02.512Z,1114.00
2024-04-06T03:06:55.751Z,1112.00
2024-04-06T03:07:55.764Z,1114.00
2024-04-06T03:09:16.778Z,1113.00
2024-04-06T03:09:55.764Z,1112.00
2024-04-06T03:10:55.767Z,1115.00
2024-04-06T03:12:16.771Z,1118.00
2024-04-06T03:12:55.772Z,1112.00
2024-04-06T03:13:55.777Z,1117.00
2024-04-06T03:14:55.789Z,1124.00
2024-04-06T03:15:55.783Z,1136.00
2024-04-06T03:16:55.792Z,1148.00
2024-04-06T03:17:55.788Z,1147.00
2024-04-06T03:18:55.812Z,1145.00
2024-04-06T03:19:55.801Z,1137.00
2024-04-06T03:20:55.783Z,1142.00
2024-04-06T03:21:55.786Z,1136.00
2024-04-06T03:22:55.792Z,1135.00
2024-04-06T03:23:55.786Z,1139.00
2024-04-06T03:24:55.796Z,1132.00
2024-04-06T03:25:55.794Z,1130.00
2024-04-06T03:26:55.798Z,1137.00
2024-04-06T03:27:55.807Z,1133.00
2024-04-06T03:28:55.801Z,1143.00
2024-04-06T03:29:55.804Z,1135.00
2024-04-06T03:30:55.804Z,1138.00
2024-04-06T03:31:55.823Z,1132.00
2024-04-06T03:32:55.818Z,1136.00
2024-04-06T03:34:02.523Z,1131.00
2024-04-06T03:34:55.810Z,1132.00
2024-04-06T03:35:55.797Z,1133.00
2024-04-06T03:37:12.038Z,1141.00
2024-04-06T03:37:55.812Z,1132.00
2024-04-06T03:38:55.808Z,1136.00
2024-04-06T03:40:27.533Z,1142.00
2024-04-06T03:40:55.816Z,1132.00
2024-04-06T03:41:55.843Z,1138.00
2024-04-06T03:42:55.815Z,1149.00
2024-04-06T03:43:55.821Z,1163.00
2024-04-06T03:44:55.825Z,1182.00
2024-04-06T03:45:55.814Z,1196.00
2024-04-06T03:46:55.824Z,1193.00
2024-04-06T03:47:55.819Z,1188.00
2024-04-06T03:48:55.819Z,1185.00
2024-04-06T03:49:55.823Z,1187.00
2024-04-06T03:50:55.825Z,1189.00
2024-04-06T03:51:55.828Z,1195.00
2024-04-06T03:52:55.828Z,1192.00
2024-04-06T03:53:55.827Z,1191.00
2024-04-06T03:54:55.849Z,1180.00
2024-04-06T03:56:10.533Z,1189.00
2024-04-06T03:56:55.827Z,1189.00
2024-04-06T03:57:55.834Z,1191.00
2024-04-06T03:58:58.532Z,1190.00
2024-04-06T03:59:55.839Z,1189.00
2024-04-06T04:00:55.829Z,1190.00
2024-04-06T04:01:58.529Z,1191.00
2024-04-06T04:02:55.831Z,1189.00
2024-04-06T04:03:55.831Z,1190.00
2024-04-06T04:05:24.553Z,1186.00
2024-04-06T04:05:55.838Z,1189.00
2024-04-06T04:06:55.836Z,1192.00
2024-04-06T04:07:55.848Z,1196.00
2024-04-06T04:08:55.837Z,1202.00
2024-04-06T04:09:55.841Z,1204.00
2024-04-06T04:10:55.886Z,1201.00
2024-04-06T04:11:55.843Z,1191.00
2024-04-06T04:12:55.838Z,1190.00
2024-04-06T04:13:55.841Z,1202.00
2024-04-06T04:14:55.845Z,1189.00
2024-04-06T04:15:55.837Z,1189.00
2024-04-06T04:16:55.842Z,1188.00
2024-04-06T04:17:55.834Z,1192.00
2024-04-06T04:18:55.848Z,1189.00
2024-04-06T04:19:55.850Z,1198.00
2024-04-06T04:20:55.844Z,1189.00
2024-04-06T04:21:55.839Z,1184.00
2024-04-06T04:22:55.840Z,1184.00
2024-04-06T04:24:02.551Z,1193.00
2024-04-06T04:24:55.860Z,1184.00
2024-04-06T04:25:55.845Z,1186.00
2024-04-06T04:27:02.544Z,1185.00
2024-04-06T04:28:09.763Z,600.00
2024-04-06T04:29:09.759Z,600.00
2024-04-06T04:30:09.768Z,600.00
2024-04-06T04:31:16.978Z,600.00
2024-04-06T04:32:16.973Z,600.00
2024-04-06T04:33:17.575Z,600.00
2024-04-06T04:34:16.981Z,600.00
2024-04-06T04:35:16.993Z,600.00
2024-04-06T04:36:23.585Z,602.00
2024-04-06T04:37:16.986Z,602.00
2024-04-06T04:38:16.984Z,600.00
2024-04-06T04:39:31.592Z,600.00
2024-04-06T04:40:17.183Z,602.00
2024-04-06T04:41:17.210Z,602.00
2024-04-06T04:42:38.234Z,602.00
2024-04-06T04:43:17.255Z,602.00
2024-04-06T04:44:35.333Z,603.00
2024-04-06T04:45:18.252Z,602.00
2024-04-06T04:46:17.237Z,603.00
2024-04-06T04:47:17.245Z,605.00
2024-04-06T04:48:17.266Z,606.00
2024-04-06T04:49:17.245Z,608.00
2024-04-06T04:50:17.249Z,604.00
2024-04-06T04:51:17.257Z,602.00
2024-04-06T04:52:17.252Z,603.00
2024-04-06T04:53:17.243Z,600.00
2024-04-06T04:54:17.258Z,604.00
2024-04-06T04:55:17.250Z,603.00
2024-04-06T04:56:17.252Z,604.00
2024-04-06T04:57:17.257Z,603.00
2024-04-06T04:58:24.082Z,603.00
2024-04-06T04:59:17.254Z,604.00
2024-04-06T05:00:17.261Z,604.00
2024-04-06T05:01:32.146Z,605.00
2024-04-06T05:02:17.274Z,604.00
2024-04-06T05:03:17.260Z,605.00
2024-04-06T05:04:32.085Z,608.00
2024-04-06T05:05:17.278Z,604.00
2024-04-06T05:06:17.272Z,606.00
2024-04-06T05:07:38.278Z,609.00
2024-04-06T05:08:17.288Z,604.00
2024-04-06T05:09:17.277Z,607.00
2024-04-06T05:10:17.295Z,612.00
2024-04-06T05:11:17.312Z,620.00
2024-04-06T05:12:17.294Z,628.00
2024-04-06T05:13:17.294Z,633.00
2024-04-06T05:14:17.291Z,630.00
2024-04-06T05:15:17.296Z,627.00
2024-04-06T05:16:17.297Z,628.00
2024-04-06T05:17:17.297Z,625.00
2024-04-06T05:18:17.301Z,624.00
2024-04-06T05:19:17.303Z,622.00
2024-04-06T05:20:17.309Z,623.00
2024-04-06T05:21:17.311Z,620.00
2024-04-06T05:22:17.309Z,619.00
2024-04-06T05:23:17.310Z,613.00
2024-04-06T05:24:17.313Z,613.00
2024-04-06T05:25:17.319Z,610.00
2024-04-06T05:26:17.318Z,607.00
2024-04-06T05:27:17.372Z,607.00
2024-04-06T05:28:17.326Z,608.00
2024-04-06T05:29:38.372Z,601.00
2024-04-06T05:30:17.323Z,601.00
2024-04-06T05:31:17.330Z,602.00
2024-04-06T05:32:17.330Z,604.00
2024-04-06T05:33:17.339Z,605.00
2024-04-06T05:34:17.349Z,607.00
2024-04-06T05:35:17.351Z,605.00
2024-04-06T05:36:17.341Z,600.00
2024-04-06T05:37:17.341Z,600.00
2024-04-06T05:38:17.336Z,600.00
2024-04-06T05:39:17.340Z,605.00
2024-04-06T05:40:17.365Z,604.00
2024-04-06T05:41:17.346Z,600.00
2024-04-06T05:42:17.345Z,606.00
2024-04-06T05:43:17.343Z,604.00
2024-04-06T05:44:17.345Z,607.00
2024-04-06T05:45:17.356Z,604.00
2024-04-06T05:46:17.355Z,607.00
2024-04-06T05:47:17.349Z,606.00
2024-04-06T05:48:17.349Z,606.00
2024-04-06T05:49:17.354Z,609.00
2024-04-06T05:50:17.356Z,614.00
2024-04-06T05:51:17.347Z,604.00
2024-04-06T05:52:17.354Z,613.00
2024-04-06T05:53:17.353Z,608.00
2024-04-06T05:54:20.106Z,620.00
2024-04-06T05:55:17.380Z,616.00
2024-04-06T05:56:17.365Z,618.00
2024-04-06T05:57:38.373Z,623.00
2024-04-06T05:58:17.372Z,620.00
2024-04-06T05:59:17.369Z,622.00
2024-04-06T06:00:35.648Z,626.00
2024-04-06T06:01:17.378Z,620.00
2024-04-06T06:02:17.374Z,624.00
2024-04-06T06:03:17.375Z,628.00
2024-04-06T06:04:17.386Z,641.00
2024-04-06T06:05:17.378Z,644.00
2024-04-06T06:06:17.368Z,656.00
2024-04-06T06:07:17.378Z,652.00
2024-04-06T06:08:17.383Z,653.00
2024-04-06T06:09:17.380Z,656.00
2024-04-06T06:10:17.381Z,650.00
2024-04-06T06:11:17.402Z,654.00
2024-04-06T06:12:17.389Z,655.00
2024-04-06T06:13:17.383Z,652.00
2024-04-06T06:14:19.092Z,653.00
2024-04-06T06:15:17.387Z,653.00
2024-04-06T06:16:24.122Z,654.00
2024-04-06T06:17:17.396Z,653.00
2024-04-06T06:18:17.391Z,654.00
2024-04-06T06:19:32.118Z,656.00
2024-04-06T06:20:17.398Z,654.00
2024-04-06T06:21:17.391Z,655.00
2024-04-06T06:22:24.120Z,659.00
2024-04-06T06:23:17.409Z,654.00
2024-04-06T06:24:17.398Z,656.00
2024-04-06T06:25:43.634Z,659.00
2024-04-06T06:26:17.409Z,654.00
2024-04-06T06:27:17.403Z,656.00
2024-04-06T06:28:17.405Z,660.00
2024-04-06T06:29:17.402Z,665.00
2024-04-06T06:30:17.406Z,694.00
2024-04-06T06:31:17.406Z,695.00
2024-04-06T06:32:17.420Z,698.00
2024-04-06T06:33:17.448Z,694.00
2024-04-06T06:34:17.453Z,692.00
2024-04-06T06:35:17.482Z,687.00
2024-04-06T06:38:17.512Z,683.00
2024-04-06T06:41:17.485Z,683.00
2024-04-06T06:42:17.490Z,685.00
2024-04-06T06:43:17.497Z,685.00
2024-04-06T06:44:17.492Z,691.00
2024-04-06T06:45:17.508Z,682.00
2024-04-06T06:46:17.508Z,684.00
2024-04-06T06:47:17.519Z,686.00
2024-04-06T06:48:17.561Z,688.00
2024-04-06T06:49:17.529Z,676.00
2024-04-06T06:50:41.669Z,679.00
2024-04-06T06:51:17.508Z,680.00
2024-04-06T06:52:17.528Z,683.00
2024-04-06T06:53:38.575Z,687.00
2024-04-06T06:54:17.523Z,681.00
2024-04-06T06:55:17.532Z,685.00
2024-04-06T06:56:17.527Z,695.00
2024-04-06T06:57:17.523Z,700.00
2024-04-06T06:58:17.534Z,717.00
2024-04-06T06:59:17.540Z,712.00
2024-04-06T07:01:17.542Z,702.00
2024-04-06T07:02:17.540Z,701.00
2024-04-06T07:03:17.535Z,700.00
2024-04-06T07:04:17.539Z,687.00
2024-04-06T07:05:17.556Z,692.00
2024-04-06T07:07:06.629Z,689.00
2024-04-06T07:07:18.554Z,689.00
2024-04-06T07:08:17.551Z,690.00
2024-04-06T07:09:24.137Z,681.00
2024-04-06T07:10:17.595Z,689.00
2024-04-06T07:11:17.558Z,670.00
2024-04-06T07:12:38.566Z,674.00
2024-04-06T07:13:17.577Z,689.00
2024-04-06T07:14:17.567Z,689.00
2024-04-06T07:15:17.567Z,692.00
2024-04-06T07:16:17.568Z,690.00
2024-04-06T07:17:17.565Z,679.00
2024-04-06T07:18:45.154Z,682.00
2024-04-06T07:19:17.577Z,683.00
2024-04-06T07:20:17.582Z,685.00
2024-04-06T07:21:17.584Z,689.00
2024-04-06T07:22:17.585Z,690.00
2024-04-06T07:23:17.589Z,701.00
2024-04-06T07:24:17.596Z,696.00
2024-04-06T07:25:17.593Z,690.00
2024-04-06T07:26:17.593Z,685.00
2024-04-06T07:27:17.590Z,691.00
2024-04-06T07:28:17.593Z,682.00
2024-04-06T07:29:17.594Z,683.00
2024-04-06T07:30:17.600Z,677.00
2024-04-06T07:31:17.596Z,675.00
2024-04-06T07:32:17.590Z,672.00
2024-04-06T07:33:17.590Z,677.00
2024-04-06T07:34:17.603Z,672.00
2024-04-06T07:35:17.629Z,667.00
2024-04-06T07:36:17.603Z,666.00
2024-04-06T07:37:32.155Z,672.00
2024-04-06T07:38:20.666Z,673.00
2024-04-06T07:39:20.530Z,673.00
2024-04-06T07:40:36.164Z,673.00
2024-04-06T07:41:17.775Z,673.00
2024-04-06T07:42:17.775Z,676.00
2024-04-06T07:43:38.787Z,679.00
2024-04-06T07:44:17.791Z,673.00
2024-04-06T07:45:17.797Z,677.00
2024-04-06T07:46:17.793Z,681.00
2024-04-06T07:47:17.789Z,687.00
2024-04-06T07:48:17.794Z,690.00
2024-04-06T07:49:17.807Z,687.00
2024-04-06T07:50:17.803Z,693.00
2024-04-06T07:51:17.812Z,682.00
2024-04-06T07:52:17.803Z,682.00
2024-04-06T07:53:17.800Z,670.00
2024-04-06T07:54:17.806Z,667.00
2024-04-06T07:55:17.803Z,664.00
2024-04-06T07:56:17.805Z,665.00
2024-04-06T07:57:17.810Z,663.00
2024-04-06T07:58:17.818Z,659.00
2024-04-06T07:59:24.666Z,658.00
2024-04-06T08:00:17.838Z,658.00
2024-04-06T08:01:17.813Z,654.00
2024-04-06T08:02:24.673Z,657.00
2024-04-06T08:03:17.821Z,658.00
2024-04-06T08:04:17.825Z,655.00
2024-04-06T08:05:36.175Z,657.00
2024-04-06T08:06:17.827Z,658.00
2024-04-06T08:07:17.828Z,658.00
2024-04-06T08:08:39.668Z,653.00
2024-04-06T08:09:17.845Z,658.00
2024-04-06T08:10:17.881Z,659.00
2024-04-06T08:11:41.674Z,655.00
2024-04-06T08:12:17.841Z,658.00
2024-04-06T08:13:17.849Z,659.00
2024-04-06T08:14:24.345Z,659.00
2024-04-06T08:15:18.861Z,658.00
2024-04-06T08:16:17.844Z,654.00
2024-04-06T08:17:17.849Z,649.00
2024-04-06T08:18:17.867Z,644.00
2024-04-06T08:19:17.858Z,639.00
2024-04-06T08:20:17.873Z,636.00
2024-04-06T08:21:17.870Z,634.00
2024-04-06T08:22:17.866Z,632.00
2024-04-06T08:23:17.859Z,632.00
2024-04-06T08:24:18.682Z,629.00
2024-04-06T08:25:17.925Z,626.00
2024-04-06T08:26:17.985Z,622.00
2024-04-06T08:27:18.052Z,623.00
2024-04-06T08:28:18.111Z,620.00
2024-04-06T08:29:18.192Z,610.00
2024-04-06T08:30:18.276Z,612.00
2024-04-06T08:31:18.311Z,606.00
2024-04-06T08:32:18.387Z,605.00
2024-04-06T08:33:25.183Z,604.00
2024-04-06T08:34:18.477Z,604.00
2024-04-06T08:35:18.451Z,602.00
2024-04-06T08:36:33.201Z,604.00
2024-04-06T08:37:18.447Z,604.00
2024-04-06T08:38:18.444Z,603.00
2024-04-06T08:39:18.447Z,599.00
2024-04-06T08:40:18.510Z,595.00
2024-04-06T08:41:18.471Z,597.00
2024-04-06T08:42:18.467Z,601.00
2024-04-06T08:43:18.448Z,601.00
2024-04-06T08:44:18.447Z,603.00
2024-04-06T08:45:18.463Z,604.00
2024-04-06T08:46:18.468Z,600.00
2024-04-06T08:47:18.461Z,600.00
2024-04-06T08:48:18.472Z,603.00
2024-04-06T08:49:18.479Z,601.00
2024-04-06T08:50:18.460Z,602.00
2024-04-06T08:51:18.470Z,601.00
2024-04-06T08:52:18.470Z,601.00
2024-04-06T08:53:18.463Z,601.00
2024-04-06T08:54:18.480Z,602.00
2024-04-06T08:55:18.488Z,606.00
2024-04-06T08:56:18.463Z,600.00
2024-04-06T08:57:18.475Z,600.00
2024-04-06T08:58:25.194Z,605.00
2024-04-06T08:59:18.466Z,605.00
2024-04-06T09:00:18.471Z,603.00
2024-04-06T09:01:46.196Z,604.00
2024-04-06T09:02:18.487Z,606.00
2024-04-06T09:03:18.478Z,607.00
2024-04-06T09:04:33.200Z,607.00
2024-04-06T09:05:18.495Z,606.00
2024-04-06T09:06:18.504Z,606.00
2024-04-06T09:07:18.493Z,607.00
2024-04-06T09:08:18.489Z,607.00
2024-04-06T09:09:18.488Z,608.00
2024-04-06T09:10:18.562Z,604.00
2024-04-06T09:11:18.504Z,602.00
2024-04-06T09:12:18.494Z,602.00
2024-04-06T09:13:18.515Z,603.00
2024-04-06T09:14:18.488Z,607.00
2024-04-06T09:15:18.506Z,603.00
2024-04-06T09:16:18.570Z,601.00
2024-04-06T09:17:18.502Z,602.00
2024-04-06T09:18:18.502Z,601.00
2024-04-06T09:19:18.510Z,602.00
2024-04-06T09:20:23.711Z,600.00
2024-04-06T09:21:18.512Z,600.00
2024-04-06T09:22:18.553Z,600.00
2024-04-06T09:23:25.210Z,600.00
2024-04-06T09:24:18.516Z,600.00
2024-04-06T09:25:18.520Z,600.00
2024-04-06T09:26:29.217Z,601.00
2024-04-06T09:27:18.511Z,600.00
2024-04-06T09:28:18.541Z,600.00
2024-04-06T09:29:33.210Z,602.00
2024-04-06T09:30:18.526Z,600.00
2024-04-06T09:31:18.538Z,600.00
2024-04-06T09:32:18.532Z,602.00
2024-04-06T09:33:18.536Z,601.00
2024-04-06T09:34:18.548Z,603.00
2024-04-06T09:35:18.534Z,602.00
2024-04-06T09:36:18.538Z,602.00
2024-04-06T09:37:18.550Z,602.00
2024-04-06T09:38:18.548Z,604.00
2024-04-06T09:39:18.539Z,607.00
2024-04-06T09:40:18.592Z,606.00
2024-04-06T09:41:18.546Z,603.00
2024-04-06T09:42:18.543Z,608.00
2024-04-06T09:43:18.561Z,609.00
2024-04-06T09:44:18.552Z,603.00
2024-04-06T09:45:18.553Z,603.00
2024-04-06T09:46:18.588Z,603.00
2024-04-06T09:47:18.539Z,603.00
2024-04-06T09:48:21.219Z,605.00
2024-04-06T09:49:18.582Z,605.00
2024-04-06T09:50:18.567Z,605.00
2024-04-06T09:51:39.562Z,605.00
2024-04-06T09:52:18.572Z,605.00
2024-04-06T09:53:18.583Z,606.00
2024-04-06T09:54:33.223Z,607.00
2024-04-06T09:55:18.602Z,605.00
2024-04-06T09:56:18.563Z,607.00
2024-04-06T09:57:39.578Z,609.00
2024-04-06T09:58:18.632Z,605.00
2024-04-06T09:59:18.577Z,607.00
2024-04-06T10:00:18.578Z,611.00
2024-04-06T10:01:18.652Z,616.00
2024-04-06T10:02:18.592Z,619.00
2024-04-06T10:03:18.579Z,619.00
2024-04-06T10:04:18.599Z,621.00
2024-04-06T10:05:18.584Z,624.00
2024-04-06T10:06:18.589Z,622.00
2024-04-06T10:07:18.689Z,621.00
2024-04-06T10:08:18.593Z,623.00
2024-04-06T10:09:18.594Z,620.00
2024-04-06T10:10:18.625Z,620.00
2024-04-06T10:11:18.615Z,623.00
2024-04-06T10:12:18.602Z,617.00
2024-04-06T10:13:18.644Z,616.00
2024-04-06T10:14:19.482Z,615.00
2024-04-06T10:15:18.608Z,616.00
2024-04-06T10:16:21.234Z,613.00
2024-04-06T10:17:18.630Z,613.00
2024-04-06T10:18:18.608Z,614.00
2024-04-06T10:19:33.234Z,615.00
2024-04-06T10:20:18.625Z,613.00
2024-04-06T10:21:18.604Z,614.00
2024-04-06T10:22:18.672Z,616.00
2024-04-06T10:23:18.626Z,615.00
2024-04-06T10:24:18.615Z,619.00
2024-04-06T10:25:18.679Z,619.00
2024-04-06T10:26:18.619Z,618.00
2024-04-06T10:27:18.626Z,618.00
2024-04-06T10:28:18.649Z,621.00
2024-04-06T10:29:18.621Z,616.00
2024-04-06T10:30:18.626Z,613.00
2024-04-06T10:31:20.802Z,616.00
2024-04-06T10:32:19.638Z,616.00
2024-04-06T10:33:18.632Z,615.00
2024-04-06T10:34:18.655Z,616.00
2024-04-06T10:35:18.639Z,617.00
2024-04-06T10:36:18.639Z,614.00
2024-04-06T10:37:18.669Z,614.00
2024-04-06T10:38:18.652Z,615.00
2024-04-06T10:39:18.638Z,614.00
2024-04-06T10:40:18.716Z,614.00
2024-04-06T10:41:18.713Z,616.00
2024-04-06T10:42:18.786Z,620.00
2024-04-06T10:43:18.867Z,617.00
2024-04-06T10:44:39.900Z,619.00
2024-04-06T10:45:18.914Z,620.00
2024-04-06T10:46:18.970Z,620.00
2024-04-06T10:47:33.752Z,620.00
2024-04-06T10:48:18.912Z,620.00
2024-04-06T10:49:18.949Z,621.00
2024-04-06T10:50:39.932Z,622.00
2024-04-06T10:51:18.918Z,620.00
2024-04-06T10:52:18.943Z,621.00
2024-04-06T10:53:18.939Z,623.00
2024-04-06T10:54:18.927Z,628.00
2024-04-06T10:55:18.978Z,634.00
2024-04-06T10:56:18.937Z,635.00
2024-04-06T10:57:18.924Z,626.00
2024-04-06T10:58:18.984Z,629.00
2024-04-06T10:59:18.933Z,629.00
2024-04-06T11:00:18.934Z,630.00
2024-04-06T11:01:19.005Z,628.00
2024-04-06T11:02:18.925Z,626.00
2024-04-06T11:03:18.929Z,626.00
2024-04-06T11:04:19.000Z,629.00
2024-04-06T11:05:18.927Z,627.00
2024-04-06T11:06:18.939Z,626.00
2024-04-06T11:07:18.969Z,627.00
2024-04-06T11:08:18.942Z,627.00
2024-04-06T11:09:25.759Z,627.00
2024-04-06T11:10:19.007Z,626.00
2024-04-06T11:11:18.940Z,627.00
2024-04-06T11:12:39.949Z,628.00
2024-04-06T11:13:18.992Z,627.00
2024-04-06T11:14:18.952Z,628.00
2024-04-06T11:15:33.764Z,629.00
2024-04-06T11:16:18.975Z,627.00
2024-04-06T11:17:18.952Z,629.00
2024-04-06T11:18:18.962Z,631.00
2024-04-06T11:19:19.063Z,635.00
2024-04-06T11:20:18.969Z,642.00
2024-04-06T11:21:18.970Z,642.00
2024-04-06T11:22:18.993Z,646.00
2024-04-06T11:23:18.963Z,642.00
2024-04-06T11:24:18.962Z,644.00
2024-04-06T11:25:19.062Z,641.00
2024-04-06T11:26:18.969Z,643.00
2024-04-06T11:27:18.976Z,641.00
2024-04-06T11:28:18.999Z,640.00
2024-04-06T11:29:18.975Z,645.00
2024-04-06T11:30:18.971Z,641.00
2024-04-06T11:31:19.028Z,640.00
2024-04-06T11:32:18.983Z,645.00
2024-04-06T11:33:18.977Z,639.00
2024-04-06T11:34:19.018Z,641.00
2024-04-06T11:35:18.975Z,641.00
2024-04-06T11:36:18.980Z,639.00
2024-04-06T11:37:21.785Z,640.00
2024-04-06T11:38:18.979Z,640.00
2024-04-06T11:39:18.983Z,640.00
2024-04-06T11:40:33.781Z,640.00
2024-04-06T11:41:19.004Z,640.00
2024-04-06T11:42:18.994Z,641.00
2024-04-06T11:43:39.995Z,642.00
2024-04-06T11:44:18.991Z,640.00
2024-04-06T11:45:19.005Z,641.00
2024-04-06T11:46:19.013Z,643.00
2024-04-06T11:47:18.999Z,644.00
2024-04-06T11:48:19.026Z,645.00
2024-04-06T11:49:19.050Z,649.00
2024-04-06T11:50:19.005Z,644.00
2024-04-06T11:51:19.013Z,643.00
2024-04-06T11:52:19.040Z,639.00
2024-04-06T11:53:19.034Z,635.00
2024-04-06T11:54:19.014Z,636.00
2024-04-06T11:55:19.079Z,630.00
2024-04-06T11:56:19.029Z,625.00
2024-04-06T11:57:19.027Z,624.00
2024-04-06T11:58:19.063Z,619.00
2024-04-06T11:59:19.024Z,624.00
2024-04-06T12:00:21.819Z,615.00
2024-04-06T12:01:19.055Z,611.00
2024-04-06T12:02:19.036Z,612.00
2024-04-06T12:03:19.035Z,615.00
2024-04-06T12:04:19.093Z,610.00
2024-04-06T12:05:25.812Z,605.00
2024-04-06T12:06:19.041Z,607.00
2024-04-06T12:07:19.077Z,600.00
2024-04-06T12:08:40.054Z,599.00
2024-04-06T12:09:19.044Z,610.00
2024-04-06T12:10:19.076Z,599.00
2024-04-06T12:11:19.054Z,595.00
2024-04-06T12:12:19.046Z,595.00
2024-04-06T12:13:19.098Z,589.00
2024-04-06T12:14:19.054Z,600.00
2024-04-06T12:15:19.064Z,602.00
2024-04-06T12:16:19.085Z,602.00
2024-04-06T12:17:19.059Z,602.00
2024-04-06T12:18:19.059Z,601.00
2024-04-06T12:19:19.094Z,606.00
2024-04-06T12:20:19.062Z,603.00
2024-04-06T12:21:19.087Z,600.00
2024-04-06T12:22:19.086Z,600.00
2024-04-06T12:23:19.064Z,601.00
2024-04-06T12:24:21.796Z,600.00
2024-04-06T12:25:19.082Z,592.00
2024-04-06T12:26:19.075Z,589.00